< < Back
Terminal Aerodrome Forecast


Current Version              Previous Versions:   1  2  3  4  5  6  7  8  9  

Terminal Aerodrome Forecast

899
FTUS44 KHUN 231120
TAFHSV
TAF
KHSV 231120Z 2312/2412 04006KT P6SM SCT250
     FM240000 VRB03KT P6SM SCT150 BKN250=



Latest METAR

554
SAUS80 KWBC 241500
MTRHSV
METAR KHSV 241453Z VRB03KT 10SM FEW250 17/08 A3013 RMK AO2 SLP200
T01670078 50008


USA.gov is the U.S. government's official web portal to all federal, state and local government web resources and services.